sensor_id;sensor_type;location;lat;lon;timestamp;pressure;altitude;pressure_sealevel;temperature;humidity
46394;BME280;32099;53.588;10.176;2023-08-21T00:01:05;101899.19;;;18.34;78.01
46394;BME280;32099;53.588;10.176;2023-08-21T00:03:30;101899.59;;;18.31;77.94
46394;BME280;32099;53.588;10.176;2023-08-21T00:05:55;101894.28;;;18.30;78.05
46394;BME280;32099;53.588;10.176;2023-08-21T00:08:21;101896.19;;;18.29;77.99
46394;BME280;32099;53.588;10.176;2023-08-21T00:10:46;101888.75;;;18.30;77.88
46394;BME280;32099;53.588;10.176;2023-08-21T00:13:11;101885.75;;;18.25;78.16
46394;BME280;32099;53.588;10.176;2023-08-21T00:15:39;101885.53;;;18.19;78.10
46394;BME280;32099;53.588;10.176;2023-08-21T00:18:05;101892.53;;;18.15;78.00
46394;BME280;32099;53.588;10.176;2023-08-21T00:20:31;101892.53;;;18.15;77.98
46394;BME280;32099;53.588;10.176;2023-08-21T00:22:56;101887.88;;;18.16;78.18
46394;BME280;32099;53.588;10.176;2023-08-21T00:25:22;101889.56;;;18.17;78.06
46394;BME280;32099;53.588;10.176;2023-08-21T00:27:47;101896.34;;;18.14;78.00
46394;BME280;32099;53.588;10.176;2023-08-21T00:30:13;101895.69;;;18.12;78.12
46394;BME280;32099;53.588;10.176;2023-08-21T00:32:40;101888.91;;;18.08;78.04
46394;BME280;32099;53.588;10.176;2023-08-21T00:35:06;101899.06;;;18.08;78.32
46394;BME280;32099;53.588;10.176;2023-08-21T00:37:31;101890.75;;;18.01;77.95
46394;BME280;32099;53.588;10.176;2023-08-21T00:39:56;101895.16;;;17.95;78.61
46394;BME280;32099;53.588;10.176;2023-08-21T00:42:22;101889.19;;;17.92;78.29
46394;BME280;32099;53.588;10.176;2023-08-21T00:44:47;101892.81;;;17.92;78.48
46394;BME280;32099;53.588;10.176;2023-08-21T00:47:12;101891.31;;;17.89;78.19
46394;BME280;32099;53.588;10.176;2023-08-21T00:49:38;101897.03;;;17.88;78.51
46394;BME280;32099;53.588;10.176;2023-08-21T00:52:04;101890.22;;;17.84;78.27
46394;BME280;32099;53.588;10.176;2023-08-21T00:54:33;101891.91;;;17.85;77.98
46394;BME280;32099;53.588;10.176;2023-08-21T00:56:59;101891.91;;;17.85;78.09
46394;BME280;32099;53.588;10.176;2023-08-21T00:59:25;101891.28;;;17.83;78.18
46394;BME280;32099;53.588;10.176;2023-08-21T01:01:51;101897.22;;;17.80;78.52
46394;BME280;32099;53.588;10.176;2023-08-21T01:04:16;101888.69;;;17.74;78.59
46394;BME280;32099;53.588;10.176;2023-08-21T01:06:42;101893.97;;;17.69;78.67
46394;BME280;32099;53.588;10.176;2023-08-21T01:11:58;101893.31;;;17.67;78.61
46394;BME280;32099;53.588;10.176;2023-08-21T01:14:52;101889.91;;;17.65;78.69
46394;BME280;32099;53.588;10.176;2023-08-21T01:17:24;101898.56;;;17.62;78.79
46394;BME280;32099;53.588;10.176;2023-08-21T01:19:51;101895.59;;;17.57;78.91
46394;BME280;32099;53.588;10.176;2023-08-21T01:22:17;101901.28;;;17.55;78.88
46394;BME280;32099;53.588;10.176;2023-08-21T01:24:43;101887.28;;;17.50;79.02
46394;BME280;32099;53.588;10.176;2023-08-21T01:27:09;101895.72;;;17.49;79.26
46394;BME280;32099;53.588;10.176;2023-08-21T01:29:35;101889.59;;;17.47;79.32
46394;BME280;32099;53.588;10.176;2023-08-21T01:32:16;101895.28;;;17.45;79.59
46394;BME280;32099;53.588;10.176;2023-08-21T01:34:48;101892.34;;;17.47;79.25
46394;BME280;32099;53.588;10.176;2023-08-21T01:37:16;101896.31;;;17.44;79.34
46394;BME280;32099;53.588;10.176;2023-08-21T01:39:42;101906.91;;;17.40;79.47
46394;BME280;32099;53.588;10.176;2023-08-21T01:42:07;101901.63;;;17.39;79.51
46394;BME280;32099;53.588;10.176;2023-08-21T01:44:33;101907.13;;;17.39;79.53
46394;BME280;32099;53.588;10.176;2023-08-21T01:46:58;101903.72;;;17.37;79.59
46394;BME280;32099;53.588;10.176;2023-08-21T01:49:23;101903.25;;;17.33;80.23
46394;BME280;32099;53.588;10.176;2023-08-21T01:51:48;101900.91;;;17.30;80.04
46394;BME280;32099;53.588;10.176;2023-08-21T01:54:14;101904.91;;;17.27;80.37
46394;BME280;32099;53.588;10.176;2023-08-21T01:56:39;101899.78;;;17.24;80.04
46394;BME280;32099;53.588;10.176;2023-08-21T01:59:04;101903.41;;;17.25;80.08
46394;BME280;32099;53.588;10.176;2023-08-21T02:01:31;101896.19;;;17.24;80.24
46394;BME280;32099;53.588;10.176;2023-08-21T02:03:56;101895.16;;;17.25;80.36
46394;BME280;32099;53.588;10.176;2023-08-21T02:06:22;101892.13;;;17.20;80.55
46394;BME280;32099;53.588;10.176;2023-08-21T02:08:48;101890.41;;;17.19;80.46
46394;BME280;32099;53.588;10.176;2023-08-21T02:11:14;101889.75;;;17.17;80.38
46394;BME280;32099;53.588;10.176;2023-08-21T02:13:39;101892.72;;;17.15;80.28
46394;BME280;32099;53.588;10.176;2023-08-21T02:16:04;101887.22;;;17.15;80.64
46394;BME280;32099;53.588;10.176;2023-08-21T02:18:30;101890.81;;;17.16;80.10
46394;BME280;32099;53.588;10.176;2023-08-21T02:20:55;101889.97;;;17.15;80.12
46394;BME280;32099;53.588;10.176;2023-08-21T02:23:20;101903.97;;;17.14;80.02
46394;BME280;32099;53.588;10.176;2023-08-21T02:25:46;101903.97;;;17.14;79.75
46394;BME280;32099;53.588;10.176;2023-08-21T02:28:11;101894.81;;;17.13;80.05
46394;BME280;32099;53.588;10.176;2023-08-21T02:30:39;101899.69;;;17.11;80.13
46394;BME280;32099;53.588;10.176;2023-08-21T02:33:05;101895.81;;;17.05;80.45
46394;BME280;32099;53.588;10.176;2023-08-21T02:35:30;101897.47;;;17.00;80.54
46394;BME280;32099;53.588;10.176;2023-08-21T02:37:56;101907.44;;;17.01;80.92
46394;BME280;32099;53.588;10.176;2023-08-21T02:40:21;101905.53;;;17.01;80.59
46394;BME280;32099;53.588;10.176;2023-08-21T02:42:46;101901.25;;;16.99;80.90
46394;BME280;32099;53.588;10.176;2023-08-21T02:45:12;101905.06;;;16.98;80.77
46394;BME280;32099;53.588;10.176;2023-08-21T02:47:37;101905.06;;;16.98;80.91
46394;BME280;32099;53.588;10.176;2023-08-21T02:50:04;101912.00;;;16.93;80.89
46394;BME280;32099;53.588;10.176;2023-08-21T02:52:31;101907.09;;;16.89;80.79
46394;BME280;32099;53.588;10.176;2023-08-21T02:54:57;101902.63;;;16.88;80.85
46394;BME280;32099;53.588;10.176;2023-08-21T02:57:23;101906.81;;;16.84;80.90
46394;BME280;32099;53.588;10.176;2023-08-21T02:59:49;101903.59;;;16.80;81.39
46394;BME280;32099;53.588;10.176;2023-08-21T03:02:15;101905.91;;;16.76;81.47
46394;BME280;32099;53.588;10.176;2023-08-21T03:04:40;101913.50;;;16.74;81.11
46394;BME280;32099;53.588;10.176;2023-08-21T03:07:05;101912.84;;;16.72;81.08
46394;BME280;32099;53.588;10.176;2023-08-21T03:09:31;101906.88;;;16.69;81.12
46394;BME280;32099;53.588;10.176;2023-08-21T03:11:56;101910.88;;;16.66;81.03
46394;BME280;32099;53.588;10.176;2023-08-21T03:14:21;101916.56;;;16.64;81.15
46394;BME280;32099;53.588;10.176;2023-08-21T03:16:47;101914.41;;;16.60;81.53
46394;BME280;32099;53.588;10.176;2023-08-21T03:19:12;101919.91;;;16.60;81.13
46394;BME280;32099;53.588;10.176;2023-08-21T03:21:37;101912.69;;;16.59;81.83
46394;BME280;32099;53.588;10.176;2023-08-21T03:24:03;101909.28;;;16.57;81.70
46394;BME280;32099;53.588;10.176;2023-08-21T03:26:28;101916.91;;;16.55;81.82
46394;BME280;32099;53.588;10.176;2023-08-21T03:28:53;101913.50;;;16.53;81.41
46394;BME280;32099;53.588;10.176;2023-08-21T03:31:19;101918.34;;;16.50;81.71
46394;BME280;32099;53.588;10.176;2023-08-21T03:33:44;101916.63;;;16.49;81.66
46394;BME280;32099;53.588;10.176;2023-08-21T03:36:09;101911.13;;;16.49;81.56
46394;BME280;32099;53.588;10.176;2023-08-21T03:38:35;101913.03;;;16.49;81.81
46394;BME280;32099;53.588;10.176;2023-08-21T03:41:00;101907.69;;;16.47;81.72
46394;BME280;32099;53.588;10.176;2023-08-21T03:43:25;101911.31;;;16.48;82.03
46394;BME280;32099;53.588;10.176;2023-08-21T03:45:51;101910.44;;;16.47;81.84
46394;BME280;32099;53.588;10.176;2023-08-21T03:48:16;101915.97;;;16.47;81.80
46394;BME280;32099;53.588;10.176;2023-08-21T03:50:41;101918.91;;;16.46;81.94
46394;BME280;32099;53.588;10.176;2023-08-21T03:53:07;101916.38;;;16.44;82.48
46394;BME280;32099;53.588;10.176;2023-08-21T03:55:32;101918.47;;;16.42;82.41
46394;BME280;32099;53.588;10.176;2023-08-21T03:57:59;101926.88;;;16.41;83.05
46394;BME280;32099;53.588;10.176;2023-08-21T04:00:25;101917.78;;;16.40;82.77
46394;BME280;32099;53.588;10.176;2023-08-21T04:02:51;101914.84;;;16.42;82.80
46394;BME280;32099;53.588;10.176;2023-08-21T04:05:16;101920.16;;;16.43;82.45
46394;BME280;32099;53.588;10.176;2023-08-21T04:07:41;101922.06;;;16.43;82.66
46394;BME280;32099;53.588;10.176;2023-08-21T04:10:07;101919.28;;;16.43;82.66
46394;BME280;32099;53.588;10.176;2023-08-21T04:12:32;101927.19;;;16.46;82.66
46394;BME280;32099;53.588;10.176;2023-08-21T04:14:57;101919.13;;;16.44;82.41
46394;BME280;32099;53.588;10.176;2023-08-21T04:17:23;101916.53;;;16.43;82.59
46394;BME280;32099;53.588;10.176;2023-08-21T04:19:51;101922.25;;;16.41;82.13
46394;BME280;32099;53.588;10.176;2023-08-21T04:22:16;101920.53;;;16.40;82.42
46394;BME280;32099;53.588;10.176;2023-08-21T04:24:42;101917.78;;;16.40;82.79
46394;BME280;32099;53.588;10.176;2023-08-21T04:27:07;101917.41;;;16.43;82.42
46394;BME280;32099;53.588;10.176;2023-08-21T04:29:34;101929.47;;;16.42;83.39
46394;BME280;32099;53.588;10.176;2023-08-21T04:32:00;101921.00;;;16.44;82.54
46394;BME280;32099;53.588;10.176;2023-08-21T04:34:25;101921.00;;;16.44;82.83
46394;BME280;32099;53.588;10.176;2023-08-21T04:36:51;101930.31;;;16.43;82.74
46394;BME280;32099;53.588;10.176;2023-08-21T04:39:17;101933.06;;;16.43;82.73
46394;BME280;32099;53.588;10.176;2023-08-21T04:41:42;101940.47;;;16.42;82.82
46394;BME280;32099;53.588;10.176;2023-08-21T04:44:08;101941.16;;;16.44;82.42
46394;BME280;32099;53.588;10.176;2023-08-21T04:46:33;101939.22;;;16.45;82.76
46394;BME280;32099;53.588;10.176;2023-08-21T04:48:58;101939.03;;;16.46;82.87
46394;BME280;32099;53.588;10.176;2023-08-21T04:51:24;101934.19;;;16.48;83.09
46394;BME280;32099;53.588;10.176;2023-08-21T04:53:49;101941.41;;;16.49;83.03
46394;BME280;32099;53.588;10.176;2023-08-21T04:56:14;101944.63;;;16.53;83.39
46394;BME280;32099;53.588;10.176;2023-08-21T04:58:39;101937.22;;;16.54;83.54
46394;BME280;32099;53.588;10.176;2023-08-21T05:01:05;101935.13;;;16.56;83.20
46394;BME280;32099;53.588;10.176;2023-08-21T05:03:30;101929.44;;;16.57;83.41
46394;BME280;32099;53.588;10.176;2023-08-21T05:05:56;101948.03;;;16.55;84.05
46394;BME280;32099;53.588;10.176;2023-08-21T05:08:24;101937.03;;;16.55;84.57
46394;BME280;32099;53.588;10.176;2023-08-21T05:10:54;101945.56;;;16.60;84.23
46394;BME280;32099;53.588;10.176;2023-08-21T05:13:22;101944.97;;;16.65;84.59
46394;BME280;32099;53.588;10.176;2023-08-21T05:15:51;101938.88;;;16.70;83.69
46394;BME280;32099;53.588;10.176;2023-08-21T05:18:18;101942.56;;;16.77;83.85
46394;BME280;32099;53.588;10.176;2023-08-21T05:20:44;101951.75;;;16.84;84.33
46394;BME280;32099;53.588;10.176;2023-08-21T05:23:09;101948.41;;;16.89;83.97
46394;BME280;32099;53.588;10.176;2023-08-21T05:25:34;101944.41;;;16.91;84.63
46394;BME280;32099;53.588;10.176;2023-08-21T05:28:00;101945.56;;;16.97;84.76
46394;BME280;32099;53.588;10.176;2023-08-21T05:30:25;101951.13;;;17.04;84.47
46394;BME280;32099;53.588;10.176;2023-08-21T05:32:51;101941.47;;;17.15;84.54
46394;BME280;32099;53.588;10.176;2023-08-21T05:35:16;101935.84;;;17.23;84.55
46394;BME280;32099;53.588;10.176;2023-08-21T05:37:41;101942.25;;;17.30;85.48
46394;BME280;32099;53.588;10.176;2023-08-21T05:40:07;101945.66;;;17.32;84.93
46394;BME280;32099;53.588;10.176;2023-08-21T05:42:32;101939.53;;;17.37;85.16
46394;BME280;32099;53.588;10.176;2023-08-21T05:44:58;101948.94;;;17.42;84.69
46394;BME280;32099;53.588;10.176;2023-08-21T05:47:23;101940.06;;;17.47;84.87
46394;BME280;32099;53.588;10.176;2023-08-21T05:49:49;101946.47;;;17.54;84.77
46394;BME280;32099;53.588;10.176;2023-08-21T05:52:15;101938.44;;;17.60;85.12
46394;BME280;32099;53.588;10.176;2023-08-21T05:54:40;101951.44;;;17.66;84.96
46394;BME280;32099;53.588;10.176;2023-08-21T05:57:05;101944.06;;;17.73;85.19
46394;BME280;32099;53.588;10.176;2023-08-21T05:59:31;101942.41;;;17.79;85.25
46394;BME280;32099;53.588;10.176;2023-08-21T06:01:57;101947.31;;;17.83;85.26
46394;BME280;32099;53.588;10.176;2023-08-21T06:04:22;101952.22;;;17.88;86.13
46394;BME280;32099;53.588;10.176;2023-08-21T06:06:48;101950.56;;;17.94;85.98
46394;BME280;32099;53.588;10.176;2023-08-21T06:09:13;101959.31;;;17.97;85.77
46394;BME280;32099;53.588;10.176;2023-08-21T06:11:38;101964.44;;;18.00;85.68
46394;BME280;32099;53.588;10.176;2023-08-21T06:14:04;101956.41;;;18.06;87.35
46394;BME280;32099;53.588;10.176;2023-08-21T06:16:29;101961.09;;;18.12;86.40
46394;BME280;32099;53.588;10.176;2023-08-21T06:18:54;101963.88;;;18.18;85.79
46394;BME280;32099;53.588;10.176;2023-08-21T06:21:19;101961.56;;;18.22;86.08
46394;BME280;32099;53.588;10.176;2023-08-21T06:23:45;101967.97;;;18.29;87.52
46394;BME280;32099;53.588;10.176;2023-08-21T06:26:10;101971.81;;;18.35;86.33
46394;BME280;32099;53.588;10.176;2023-08-21T06:28:35;101968.91;;;18.43;86.10
46394;BME280;32099;53.588;10.176;2023-08-21T06:31:01;101972.97;;;18.54;86.46
46394;BME280;32099;53.588;10.176;2023-08-21T06:33:32;101977.88;;;18.65;85.12
46394;BME280;32099;53.588;10.176;2023-08-21T06:35:57;101972.41;;;18.79;85.29
46394;BME280;32099;53.588;10.176;2023-08-21T06:38:23;101970.97;;;18.90;84.61
46394;BME280;32099;53.588;10.176;2023-08-21T06:40:48;101982.50;;;19.00;84.68
46394;BME280;32099;53.588;10.176;2023-08-21T06:43:13;101972.50;;;19.06;83.73
46394;BME280;32099;53.588;10.176;2023-08-21T06:45:38;101978.69;;;19.15;84.18
46394;BME280;32099;53.588;10.176;2023-08-21T06:48:04;101975.50;;;19.24;83.39
46394;BME280;32099;53.588;10.176;2023-08-21T06:50:30;101981.44;;;19.35;82.93
46394;BME280;32099;53.588;10.176;2023-08-21T06:52:55;101976.34;;;19.45;82.92
46394;BME280;32099;53.588;10.176;2023-08-21T06:55:20;101978.91;;;19.53;83.43
46394;BME280;32099;53.588;10.176;2023-08-21T06:57:46;101988.06;;;19.61;83.30
46394;BME280;32099;53.588;10.176;2023-08-21T07:00:11;101984.00;;;19.70;81.95
46394;BME280;32099;53.588;10.176;2023-08-21T07:02:37;101980.59;;;19.74;81.79
46394;BME280;32099;53.588;10.176;2023-08-21T07:05:02;101989.75;;;19.82;82.26
46394;BME280;32099;53.588;10.176;2023-08-21T07:07:28;101989.78;;;19.88;82.16
46394;BME280;32099;53.588;10.176;2023-08-21T07:09:53;101985.91;;;19.96;80.75
46394;BME280;32099;53.588;10.176;2023-08-21T07:12:18;101982.06;;;20.04;80.07
46394;BME280;32099;53.588;10.176;2023-08-21T07:14:43;101987.56;;;20.17;80.99
46394;BME280;32099;53.588;10.176;2023-08-21T07:17:09;101989.47;;;20.30;79.10
46394;BME280;32099;53.588;10.176;2023-08-21T07:19:34;101978.97;;;20.39;77.97
46394;BME280;32099;53.588;10.176;2023-08-21T07:21:59;101981.72;;;20.46;78.20
46394;BME280;32099;53.588;10.176;2023-08-21T07:24:24;101987.19;;;20.59;79.22
46394;BME280;32099;53.588;10.176;2023-08-21T07:26:50;101988.44;;;20.70;78.02
46394;BME280;32099;53.588;10.176;2023-08-21T07:29:15;101975.59;;;20.83;76.45
46394;BME280;32099;53.588;10.176;2023-08-21T07:31:41;101984.69;;;20.96;77.67
46394;BME280;32099;53.588;10.176;2023-08-21T07:34:06;101984.38;;;21.11;76.53
46394;BME280;32099;53.588;10.176;2023-08-21T07:36:31;101975.34;;;21.23;76.20
46394;BME280;32099;53.588;10.176;2023-08-21T07:38:57;101980.16;;;21.34;74.87
46394;BME280;32099;53.588;10.176;2023-08-21T07:41:22;101984.91;;;21.52;74.96
46394;BME280;32099;53.588;10.176;2023-08-21T07:43:48;101986.69;;;21.72;74.47
46394;BME280;32099;53.588;10.176;2023-08-21T07:46:13;101987.31;;;21.93;73.92
46394;BME280;32099;53.588;10.176;2023-08-21T07:48:40;101990.75;;;22.13;73.01
46394;BME280;32099;53.588;10.176;2023-08-21T07:51:06;101986.19;;;22.38;71.87
46394;BME280;32099;53.588;10.176;2023-08-21T07:53:31;101999.19;;;22.62;70.87
46394;BME280;32099;53.588;10.176;2023-08-21T07:55:59;101991.16;;;22.85;70.78
46394;BME280;32099;53.588;10.176;2023-08-21T07:58:25;101984.66;;;22.91;68.92
46394;BME280;32099;53.588;10.176;2023-08-21T08:00:50;101988.19;;;22.98;68.99
46394;BME280;32099;53.588;10.176;2023-08-21T08:03:15;101977.13;;;23.10;67.83
46394;BME280;32099;53.588;10.176;2023-08-21T08:05:41;101992.78;;;23.23;67.50
46394;BME280;32099;53.588;10.176;2023-08-21T08:08:07;101986.38;;;23.34;65.05
46394;BME280;32099;53.588;10.176;2023-08-21T08:10:33;101980.84;;;23.46;65.62
46394;BME280;32099;53.588;10.176;2023-08-21T08:12:58;101985.44;;;23.64;65.57
46394;BME280;32099;53.588;10.176;2023-08-21T08:15:23;101978.53;;;23.79;65.17
46394;BME280;32099;53.588;10.176;2023-08-21T08:17:49;101979.16;;;23.93;62.79
46394;BME280;32099;53.588;10.176;2023-08-21T08:20:18;101985.00;;;24.03;63.82
46394;BME280;32099;53.588;10.176;2023-08-21T08:22:43;101988.34;;;24.17;63.02
46394;BME280;32099;53.588;10.176;2023-08-21T08:25:08;101988.69;;;24.32;62.48
46394;BME280;32099;53.588;10.176;2023-08-21T08:27:33;101988.66;;;24.44;63.13
46394;BME280;32099;53.588;10.176;2023-08-21T08:29:59;101992.00;;;24.58;62.09
46394;BME280;32099;53.588;10.176;2023-08-21T08:32:25;101992.69;;;24.77;62.06
46394;BME280;32099;53.588;10.176;2023-08-21T08:34:54;101993.50;;;24.90;61.21
46394;BME280;32099;53.588;10.176;2023-08-21T08:37:19;101985.31;;;25.00;57.34
46394;BME280;32099;53.588;10.176;2023-08-21T08:39:48;101987.00;;;25.01;59.87
46394;BME280;32099;53.588;10.176;2023-08-21T08:42:14;101990.56;;;25.14;59.65
46394;BME280;32099;53.588;10.176;2023-08-21T08:44:40;101990.41;;;25.20;59.33
46394;BME280;32099;53.588;10.176;2023-08-21T08:47:10;101994.97;;;25.26;57.70
46394;BME280;32099;53.588;10.176;2023-08-21T08:49:36;101988.91;;;25.30;59.20
46394;BME280;32099;53.588;10.176;2023-08-21T08:52:02;101992.22;;;25.44;57.68
46394;BME280;32099;53.588;10.176;2023-08-21T08:54:28;101982.34;;;25.53;57.37
46394;BME280;32099;53.588;10.176;2023-08-21T08:56:54;101995.38;;;25.64;56.77
46394;BME280;32099;53.588;10.176;2023-08-21T08:59:20;101990.72;;;25.70;57.40
46394;BME280;32099;53.588;10.176;2023-08-21T09:01:45;101989.59;;;25.88;57.92
46394;BME280;32099;53.588;10.176;2023-08-21T09:04:10;101988.03;;;26.14;57.72
46394;BME280;32099;53.588;10.176;2023-08-21T09:06:36;101985.50;;;26.35;57.55
46394;BME280;32099;53.588;10.176;2023-08-21T09:09:03;101996.09;;;26.55;55.01
46394;BME280;32099;53.588;10.176;2023-08-21T09:11:29;101999.00;;;26.66;54.86
46394;BME280;32099;53.588;10.176;2023-08-21T09:13:55;101984.88;;;26.77;55.34
46394;BME280;32099;53.588;10.176;2023-08-21T09:16:21;101992.84;;;26.86;55.53
46394;BME280;32099;53.588;10.176;2023-08-21T09:18:48;101993.75;;;26.91;55.25
46394;BME280;32099;53.588;10.176;2023-08-21T09:21:16;101994.38;;;26.99;54.75
46394;BME280;32099;53.588;10.176;2023-08-21T09:23:44;101997.25;;;27.09;54.57
46394;BME280;32099;53.588;10.176;2023-08-21T09:26:11;101998.97;;;27.15;52.12
46394;BME280;32099;53.588;10.176;2023-08-21T09:28:42;101998.47;;;27.18;53.58
46394;BME280;32099;53.588;10.176;2023-08-21T09:31:08;101998.53;;;27.23;54.24
46394;BME280;32099;53.588;10.176;2023-08-21T09:33:33;101999.41;;;27.29;48.88
46394;BME280;32099;53.588;10.176;2023-08-21T09:35:58;102002.78;;;27.31;54.76
46394;BME280;32099;53.588;10.176;2023-08-21T09:38:25;101990.81;;;27.41;54.67
46394;BME280;32099;53.588;10.176;2023-08-21T09:40:52;101995.72;;;27.56;52.88
46394;BME280;32099;53.588;10.176;2023-08-21T09:43:20;101992.47;;;27.69;51.44
46394;BME280;32099;53.588;10.176;2023-08-21T09:45:48;101988.25;;;27.67;51.47
46394;BME280;32099;53.588;10.176;2023-08-21T09:48:15;101990.22;;;27.66;51.23
46394;BME280;32099;53.588;10.176;2023-08-21T09:50:41;101984.63;;;27.71;48.75
46394;BME280;32099;53.588;10.176;2023-08-21T09:53:06;101985.97;;;27.64;52.41
46394;BME280;32099;53.588;10.176;2023-08-21T09:55:32;101976.84;;;27.79;52.33
46394;BME280;32099;53.588;10.176;2023-08-21T09:58:01;101982.53;;;27.89;51.30
46394;BME280;32099;53.588;10.176;2023-08-21T10:00:28;101979.50;;;28.01;50.14
46394;BME280;32099;53.588;10.176;2023-08-21T10:02:56;101984.00;;;28.07;51.71
46394;BME280;32099;53.588;10.176;2023-08-21T10:05:30;101984.38;;;28.16;51.59
46394;BME280;32099;53.588;10.176;2023-08-21T10:07:57;101977.72;;;28.38;51.80
46394;BME280;32099;53.588;10.176;2023-08-21T10:10:25;101974.41;;;28.46;48.87
46394;BME280;32099;53.588;10.176;2023-08-21T10:12:51;101972.41;;;28.36;51.95
46394;BME280;32099;53.588;10.176;2023-08-21T10:15:16;101986.13;;;28.32;51.34
46394;BME280;32099;53.588;10.176;2023-08-21T10:17:42;101979.13;;;28.30;49.51
46394;BME280;32099;53.588;10.176;2023-08-21T10:20:08;101988.63;;;28.24;50.42
46394;BME280;32099;53.588;10.176;2023-08-21T10:25:23;101986.44;;;28.36;48.43
46394;BME280;32099;53.588;10.176;2023-08-21T10:27:54;101974.97;;;28.43;50.26
46394;BME280;32099;53.588;10.176;2023-08-21T10:30:21;101978.91;;;28.47;49.17
46394;BME280;32099;53.588;10.176;2023-08-21T10:32:48;101979.16;;;28.45;49.98
46394;BME280;32099;53.588;10.176;2023-08-21T10:35:15;101976.63;;;28.33;49.76
46394;BME280;32099;53.588;10.176;2023-08-21T10:40:31;101981.31;;;28.17;48.74
46394;BME280;32099;53.588;10.176;2023-08-21T10:42:57;101981.56;;;28.11;50.66
46394;BME280;32099;53.588;10.176;2023-08-21T10:45:23;101986.91;;;28.17;46.19
46394;BME280;32099;53.588;10.176;2023-08-21T10:47:48;101989.31;;;28.03;47.90
46394;BME280;32099;53.588;10.176;2023-08-21T10:50:15;101989.03;;;28.00;49.27
46394;BME280;32099;53.588;10.176;2023-08-21T10:52:42;101993.59;;;28.11;49.77
46394;BME280;32099;53.588;10.176;2023-08-21T10:55:10;101970.97;;;28.23;50.00
46394;BME280;32099;53.588;10.176;2023-08-21T10:57:37;101981.31;;;28.23;47.24
46394;BME280;32099;53.588;10.176;2023-08-21T11:00:04;101979.38;;;28.23;50.34
46394;BME280;32099;53.588;10.176;2023-08-21T11:02:34;101980.78;;;28.26;48.59
46394;BME280;32099;53.588;10.176;2023-08-21T11:05:01;101980.50;;;28.22;48.00
46394;BME280;32099;53.588;10.176;2023-08-21T11:07:28;101982.69;;;28.15;47.88
46394;BME280;32099;53.588;10.176;2023-08-21T11:09:54;101981.84;;;28.14;48.70
46394;BME280;32099;53.588;10.176;2023-08-21T11:12:20;101974.63;;;28.29;47.94
46394;BME280;32099;53.588;10.176;2023-08-21T11:14:47;101974.97;;;28.43;49.49
46394;BME280;32099;53.588;10.176;2023-08-21T11:17:13;101968.78;;;28.36;49.71
46394;BME280;32099;53.588;10.176;2023-08-21T11:19:40;101979.91;;;28.25;49.51
46394;BME280;32099;53.588;10.176;2023-08-21T11:22:06;101975.66;;;28.12;49.96
46394;BME280;32099;53.588;10.176;2023-08-21T11:27:12;101978.75;;;27.68;50.21
46394;BME280;32099;53.588;10.176;2023-08-21T11:29:43;101977.81;;;27.57;50.29
46394;BME280;32099;53.588;10.176;2023-08-21T11:32:15;101982.59;;;27.62;49.95
46394;BME280;32099;53.588;10.176;2023-08-21T11:34:46;101975.34;;;27.61;48.61
46394;BME280;32099;53.588;10.176;2023-08-21T11:37:13;101979.78;;;27.56;49.71
46394;BME280;32099;53.588;10.176;2023-08-21T11:39:42;101981.41;;;27.52;49.40
46394;BME280;32099;53.588;10.176;2023-08-21T11:42:10;101982.41;;;27.41;49.50
46394;BME280;32099;53.588;10.176;2023-08-21T11:47:16;101984.72;;;27.44;50.63
46394;BME280;32099;53.588;10.176;2023-08-21T11:49:42;101982.28;;;27.53;50.00
46394;BME280;32099;53.588;10.176;2023-08-21T11:52:12;101976.69;;;27.53;50.38
46394;BME280;32099;53.588;10.176;2023-08-21T11:54:39;101984.78;;;27.49;49.59
46394;BME280;32099;53.588;10.176;2023-08-21T11:57:09;101983.53;;;27.40;48.21
46394;BME280;32099;53.588;10.176;2023-08-21T11:59:37;101983.22;;;27.36;49.19
46394;BME280;32099;53.588;10.176;2023-08-21T12:02:08;101982.41;;;27.41;49.49
46394;BME280;32099;53.588;10.176;2023-08-21T12:04:35;101973.53;;;27.44;46.90
46394;BME280;32099;53.588;10.176;2023-08-21T12:07:00;101968.41;;;27.41;46.38
46394;BME280;32099;53.588;10.176;2023-08-21T12:09:26;101973.75;;;27.43;46.75
46394;BME280;32099;53.588;10.176;2023-08-21T12:11:52;101968.28;;;27.53;46.65
46394;BME280;32099;53.588;10.176;2023-08-21T12:14:17;101975.34;;;27.61;47.97
46394;BME280;32099;53.588;10.176;2023-08-21T12:16:42;101974.53;;;27.65;43.83
46394;BME280;32099;53.588;10.176;2023-08-21T12:19:08;101970.91;;;27.70;48.96
46394;BME280;32099;53.588;10.176;2023-08-21T12:21:34;101979.97;;;27.87;48.21
46394;BME280;32099;53.588;10.176;2023-08-21T12:24:02;101968.88;;;28.03;47.82
46394;BME280;32099;53.588;10.176;2023-08-21T12:26:29;101971.47;;;28.15;47.65
46394;BME280;32099;53.588;10.176;2023-08-21T12:28:54;101972.94;;;28.28;46.99
46394;BME280;32099;53.588;10.176;2023-08-21T12:31:20;101967.63;;;28.31;46.30
46394;BME280;32099;53.588;10.176;2023-08-21T12:33:45;101968.19;;;28.39;46.31
46394;BME280;32099;53.588;10.176;2023-08-21T12:36:10;101962.59;;;28.33;46.46
46394;BME280;32099;53.588;10.176;2023-08-21T12:38:35;101966.84;;;28.46;46.30
46394;BME280;32099;53.588;10.176;2023-08-21T12:41:01;101966.56;;;28.53;44.96
46394;BME280;32099;53.588;10.176;2023-08-21T12:43:27;101971.03;;;28.44;46.76
46394;BME280;32099;53.588;10.176;2023-08-21T12:45:52;101969.34;;;28.48;47.21
46394;BME280;32099;53.588;10.176;2023-08-21T12:48:18;101970.22;;;28.48;46.58